Terminal Aerodrome Forecast
Issued by NWS Binghamton, NY

Home | Current Version | Previous Version | Text Only | Print | Product List | Glossary On
Versions: 1 2 3 4 5 6 7 8 9 10 11 12 13 14 15 16 17 18 19
000
FTUS41 KBGM 012300
TAFBGM
TAF
KBGM 012334Z 0200/0224 08005KT P6SM SCT025
     FM020600 10004KT 4SM BR BKN025
      TEMPO 0209/0213 2SM BR BKN008
     FM021500 13005KT P6SM BKN035
     FM022000 13004KT P6SM SCT040=

USA.gov is the U.S. government's official web portal to all federal, state and local government web resources and services.